Z E U S — IFWZ — position and weather

sailwx.info

Track history (hours):
 
Tides and Currents Weather Stations Pressure Air Temp Water Temp Dewpoint Dewpoint Depression Visibility Wind Speed Wind Dir Waves Ship Positions

Z E U S

Last reported at 2015-Mar-28 10:33 UTC. Time now 2015-Mar-29 01:10 UTC.
Position N 38°01' E 012°31'.

Length 53 m; draft 2.5 m.

Type: Ship (hazmat cat C). MMSI: 247072100.

Date/timePositionNaut miles runAvg speedWind from/ knotsBaromVisibWave heightAir tempDewpointWater temp
2015-Mar-28 10:33N 38°01' E 012°31'0 0.0
2015-Mar-28 09:33N 38°01' E 012°31'0 0.0
2015-Mar-28 08:33N 38°01' E 012°31'0 0.0
2015-Mar-28 07:33N 38°01' E 012°31'0 0.0
2015-Mar-28 06:33N 38°01' E 012°31'0 0.0
2015-Mar-28 05:33N 38°01' E 012°31'0 0.0
2015-Mar-27 14:33N 38°01' E 012°31'0 0.0
2015-Mar-27 13:33N 38°01' E 012°31'0 0.0
2015-Mar-27 12:33N 38°01' E 012°31'6 5.5
2015-Mar-27 11:33N 37°58' E 012°25'5 4.6
2015-Mar-27 10:33N 37°56' E 012°20'0 0.0
2015-Mar-27 09:33N 37°56' E 012°20'0 0.0
2015-Mar-27 08:33N 37°56' E 012°20'0 0.0
2015-Mar-27 07:33N 37°56' E 012°20'7 6.6
2015-Mar-27 06:33N 37°60' E 012°26'4 3.7
2015-Mar-27 05:34N 38°01' E 012°31'0 0.0
2015-Mar-26 15:25N 38°01' E 012°31'0 0.0
2015-Mar-26 14:34N 38°01' E 012°31'0 0.0
2015-Mar-26 13:34N 38°01' E 012°31'0 0.0
2015-Mar-26 12:34N 38°01' E 012°31'4 4.2
2015-Mar-26 11:34N 37°59' E 012°26'6 5.9
2015-Mar-26 10:34N 37°56' E 012°20'0 0.0
2015-Mar-26 09:33N 37°56' E 012°20'0 0.0
2015-Mar-26 08:33N 37°56' E 012°20'2 2.3
2015-Mar-26 07:33N 37°58' E 012°20'5 5.0
2015-Mar-26 06:33N 37°59' E 012°27'4 3.7
2015-Mar-26 05:33N 38°01' E 012°31'0 0.0
2015-Mar-25 12:33N 38°01' E 012°31'4 3.5
2015-Mar-25 11:33N 37°59' E 012°27'7 6.6
2015-Mar-25 10:33N 37°56' E 012°20'0 0.0
2015-Mar-25 09:33N 37°56' E 012°20'0 0.0
2015-Mar-25 08:33N 37°56' E 012°20'0 0.0
2015-Mar-25 07:33N 37°56' E 012°20'5 4.9
2015-Mar-25 06:32N 37°58' E 012°25'5 5.2
2015-Mar-25 05:33N 38°01' E 012°31'0 0.0
2015-Mar-24 16:33N 38°01' E 012°31'0 0.0
2015-Mar-24 15:33N 38°01' E 012°31'0 0.0
2015-Mar-24 14:33N 38°01' E 012°31'0 0.0
2015-Mar-24 13:33N 38°01' E 012°31'1 0.8
2015-Mar-24 12:33N 38°00' E 012°30'9 9.0
2015-Mar-24 11:33N 37°56' E 012°20'3 2.8
2015-Mar-24 10:33N 37°59' E 012°21'9 9.1
2015-Mar-24 09:33N 37°58' E 012°09'2 2.1
2015-Mar-24 08:27N 37°57' E 012°12'7 7.4
2015-Mar-24 07:34N 37°58' E 012°20'4 4.1
2015-Mar-24 06:33N 37°58' E 012°25'5 4.9
2015-Mar-24 05:33N 38°01' E 012°31'0 0.0
2015-Mar-23 13:33N 38°01' E 012°31'0 0.0
2015-Mar-23 12:34N 38°01' E 012°31'6 5.7
2015-Mar-23 11:33N 37°58' E 012°25'4 4.4
2015-Mar-23 10:33N 37°56' E 012°19'0 0.0
2015-Mar-23 09:33N 37°56' E 012°20'3 2.8
2015-Mar-23 08:33N 37°59' E 012°20'1 0.7
2015-Mar-23 07:33N 37°58' E 012°20'4 3.8
2015-Mar-23 06:33N 37°58' E 012°25'5 5.3
2015-Mar-23 05:33N 38°01' E 012°31'0 0.0
2015-Mar-21 12:31N 38°01' E 012°31'6 6.5
2015-Mar-21 11:33N 37°57' E 012°25'4 4.1
2015-Mar-21 10:33N 37°56' E 012°20'0 0.0
2015-Mar-21 09:33N 37°56' E 012°20'0 0.0
2015-Mar-21 08:33N 37°56' E 012°20'0 0.0
2015-Mar-21 07:33N 37°56' E 012°20'4 4.0
2015-Mar-21 06:33N 37°58' E 012°24'6 6.2
2015-Mar-21 05:33N 38°01' E 012°31'0 0.0
2015-Mar-20 13:30N 38°01' E 012°31'0 0.0
2015-Mar-20 12:33N 38°01' E 012°31'4 4.2
2015-Mar-20 11:33N 37°59' E 012°26'6 5.9
2015-Mar-20 10:33N 37°56' E 012°20'0 0.0
2015-Mar-20 09:33N 37°56' E 012°20'0 0.0
2015-Mar-20 08:33N 37°56' E 012°20'0 0.0
2015-Mar-20 07:33N 37°56' E 012°20'5 5.2
2015-Mar-20 06:33N 37°59' E 012°25'5 4.9
2015-Mar-20 05:33N 38°01' E 012°31'0 0.0
2015-Mar-19 13:33N 38°01' E 012°31'0 0.0
2015-Mar-19 12:33N 38°01' E 012°31'6 5.7
2015-Mar-19 11:33N 37°58' E 012°24'4 4.4
2015-Mar-19 10:33N 37°56' E 012°20'0 0.0
2015-Mar-19 09:33N 37°56' E 012°20'0 0.0
2015-Mar-19 08:33N 37°56' E 012°20'3 3.0
2015-Mar-19 07:33N 37°59' E 012°20'3 3.1
2015-Mar-19 06:33N 37°58' E 012°24'6 6.0
2015-Mar-19 05:33N 38°01' E 012°31'0 0.0
2015-Mar-18 15:07N 38°01' E 012°31'0 0.0
2015-Mar-18 14:33N 38°01' E 012°31'0 0.0
2015-Mar-18 13:33N 38°01' E 012°31'2 2.2
2015-Mar-18 12:33N 37°60' E 012°28'8 7.9
2015-Mar-18 11:33N 37°56' E 012°20'  
Track history (hours):
 
Tides and Currents Weather Stations Pressure Air Temp Water Temp Dewpoint Dewpoint Depression Visibility Wind Speed Wind Dir Waves Ship Positions

Z E U S

Last reported at 2015-Mar-28 10:33 UTC. Time now 2015-Mar-29 01:10 UTC.
Position N 38°01' E 012°31'.

Length 53 m; draft 2.5 m.

Type: Ship (hazmat cat C). MMSI: 247072100.

Date/timePositionNaut miles runAvg speedWind from/ knotsBaromVisibWave heightAir tempDewpointWater temp
2015-Mar-28 10:33N 38°01' E 012°31'0 0.0
2015-Mar-28 09:33N 38°01' E 012°31'0 0.0
2015-Mar-28 08:33N 38°01' E 012°31'0 0.0
2015-Mar-28 07:33N 38°01' E 012°31'0 0.0
2015-Mar-28 06:33N 38°01' E 012°31'0 0.0
2015-Mar-28 05:33N 38°01' E 012°31'0 0.0
2015-Mar-27 14:33N 38°01' E 012°31'0 0.0
2015-Mar-27 13:33N 38°01' E 012°31'0 0.0
2015-Mar-27 12:33N 38°01' E 012°31'6 5.5
2015-Mar-27 11:33N 37°58' E 012°25'5 4.6
2015-Mar-27 10:33N 37°56' E 012°20'0 0.0
2015-Mar-27 09:33N 37°56' E 012°20'0 0.0
2015-Mar-27 08:33N 37°56' E 012°20'0 0.0
2015-Mar-27 07:33N 37°56' E 012°20'7 6.6
2015-Mar-27 06:33N 37°60' E 012°26'4 3.7
2015-Mar-27 05:34N 38°01' E 012°31'0 0.0
2015-Mar-26 15:25N 38°01' E 012°31'0 0.0
2015-Mar-26 14:34N 38°01' E 012°31'0 0.0
2015-Mar-26 13:34N 38°01' E 012°31'0 0.0
2015-Mar-26 12:34N 38°01' E 012°31'4 4.2
2015-Mar-26 11:34N 37°59' E 012°26'6 5.9
2015-Mar-26 10:34N 37°56' E 012°20'0 0.0
2015-Mar-26 09:33N 37°56' E 012°20'0 0.0
2015-Mar-26 08:33N 37°56' E 012°20'2 2.3
2015-Mar-26 07:33N 37°58' E 012°20'5 5.0
2015-Mar-26 06:33N 37°59' E 012°27'4 3.7
2015-Mar-26 05:33N 38°01' E 012°31'0 0.0
2015-Mar-25 12:33N 38°01' E 012°31'4 3.5
2015-Mar-25 11:33N 37°59' E 012°27'7 6.6
2015-Mar-25 10:33N 37°56' E 012°20'0 0.0
2015-Mar-25 09:33N 37°56' E 012°20'0 0.0
2015-Mar-25 08:33N 37°56' E 012°20'0 0.0
2015-Mar-25 07:33N 37°56' E 012°20'5 4.9
2015-Mar-25 06:32N 37°58' E 012°25'5 5.2
2015-Mar-25 05:33N 38°01' E 012°31'0 0.0
2015-Mar-24 16:33N 38°01' E 012°31'0 0.0
2015-Mar-24 15:33N 38°01' E 012°31'0 0.0
2015-Mar-24 14:33N 38°01' E 012°31'0 0.0
2015-Mar-24 13:33N 38°01' E 012°31'1 0.8
2015-Mar-24 12:33N 38°00' E 012°30'9 9.0
2015-Mar-24 11:33N 37°56' E 012°20'3 2.8
2015-Mar-24 10:33N 37°59' E 012°21'9 9.1
2015-Mar-24 09:33N 37°58' E 012°09'2 2.1
2015-Mar-24 08:27N 37°57' E 012°12'7 7.4
2015-Mar-24 07:34N 37°58' E 012°20'4 4.1
2015-Mar-24 06:33N 37°58' E 012°25'5 4.9
2015-Mar-24 05:33N 38°01' E 012°31'0 0.0
2015-Mar-23 13:33N 38°01' E 012°31'0 0.0
2015-Mar-23 12:34N 38°01' E 012°31'6 5.7
2015-Mar-23 11:33N 37°58' E 012°25'4 4.4
2015-Mar-23 10:33N 37°56' E 012°19'0 0.0
2015-Mar-23 09:33N 37°56' E 012°20'3 2.8
2015-Mar-23 08:33N 37°59' E 012°20'1 0.7
2015-Mar-23 07:33N 37°58' E 012°20'4 3.8
2015-Mar-23 06:33N 37°58' E 012°25'5 5.3
2015-Mar-23 05:33N 38°01' E 012°31'0 0.0
2015-Mar-21 12:31N 38°01' E 012°31'6 6.5
2015-Mar-21 11:33N 37°57' E 012°25'4 4.1
2015-Mar-21 10:33N 37°56' E 012°20'0 0.0
2015-Mar-21 09:33N 37°56' E 012°20'0 0.0
2015-Mar-21 08:33N 37°56' E 012°20'0 0.0
2015-Mar-21 07:33N 37°56' E 012°20'4 4.0
2015-Mar-21 06:33N 37°58' E 012°24'6 6.2
2015-Mar-21 05:33N 38°01' E 012°31'0 0.0
2015-Mar-20 13:30N 38°01' E 012°31'0 0.0
2015-Mar-20 12:33N 38°01' E 012°31'4 4.2
2015-Mar-20 11:33N 37°59' E 012°26'6 5.9
2015-Mar-20 10:33N 37°56' E 012°20'0 0.0
2015-Mar-20 09:33N 37°56' E 012°20'0 0.0
2015-Mar-20 08:33N 37°56' E 012°20'0 0.0
2015-Mar-20 07:33N 37°56' E 012°20'5 5.2
2015-Mar-20 06:33N 37°59' E 012°25'5 4.9
2015-Mar-20 05:33N 38°01' E 012°31'0 0.0
2015-Mar-19 13:33N 38°01' E 012°31'0 0.0
2015-Mar-19 12:33N 38°01' E 012°31'6 5.7
2015-Mar-19 11:33N 37°58' E 012°24'4 4.4
2015-Mar-19 10:33N 37°56' E 012°20'0 0.0
2015-Mar-19 09:33N 37°56' E 012°20'0 0.0
2015-Mar-19 08:33N 37°56' E 012°20'3 3.0
2015-Mar-19 07:33N 37°59' E 012°20'3 3.1
2015-Mar-19 06:33N 37°58' E 012°24'6 6.0
2015-Mar-19 05:33N 38°01' E 012°31'0 0.0
2015-Mar-18 15:07N 38°01' E 012°31'0 0.0
2015-Mar-18 14:33N 38°01' E 012°31'0 0.0
2015-Mar-18 13:33N 38°01' E 012°31'2 2.2
2015-Mar-18 12:33N 37°60' E 012°28'8 7.9
2015-Mar-18 11:33N 37°56' E 012°20'  

Dump ship's entire track history